createdAt,value
2023-03-11T00:00:23.661Z,100547.59
2023-03-11T00:02:53.210Z,100554.38
2023-03-11T00:05:26.084Z,100548.28
2023-03-11T00:07:53.080Z,100543.19
2023-03-11T00:10:22.790Z,100537.97
2023-03-11T00:12:50.029Z,100542.03
2023-03-11T00:15:16.947Z,100535.44
2023-03-11T00:17:43.716Z,100528.22
2023-03-11T00:20:20.461Z,100533.59
2023-03-11T00:22:47.808Z,100521.44
2023-03-11T00:25:15.211Z,100521.00
2023-03-11T00:27:42.025Z,100517.16
2023-03-11T00:30:10.838Z,100514.19
2023-03-11T00:32:37.793Z,100516.97
2023-03-11T00:35:05.282Z,100511.66
2023-03-11T00:37:32.071Z,100518.38
2023-03-11T00:39:59.894Z,100513.19
2023-03-11T00:42:26.613Z,100502.13
2023-03-11T00:44:53.351Z,100502.88
2023-03-11T00:47:20.060Z,100514.75
2023-03-11T00:49:46.900Z,100507.25
2023-03-11T00:52:13.658Z,100510.25
2023-03-11T00:54:40.340Z,100514.91
2023-03-11T00:57:07.109Z,100529.84
2023-03-11T00:59:35.276Z,100548.34
2023-03-11T01:02:02.030Z,100561.91
2023-03-11T01:04:29.080Z,100565.53
2023-03-11T01:06:55.832Z,100567.44
2023-03-11T01:09:22.640Z,100554.56
2023-03-11T01:11:49.445Z,100554.66
2023-03-11T01:14:16.241Z,100555.97
2023-03-11T01:16:42.936Z,100550.38
2023-03-11T01:19:09.702Z,100550.78
2023-03-11T01:21:36.404Z,100538.00
2023-03-11T01:24:03.156Z,100542.13
2023-03-11T01:26:29.928Z,100545.00
2023-03-11T01:28:56.683Z,100534.59
2023-03-11T01:31:23.581Z,100534.38
2023-03-11T01:33:50.400Z,100537.84
2023-03-11T01:36:17.173Z,100546.44
2023-03-11T01:38:43.982Z,100534.94
2023-03-11T01:41:12.267Z,100542.16
2023-03-11T01:43:44.754Z,100540.91
2023-03-11T01:46:31.255Z,100534.84
2023-03-11T01:49:00.595Z,100530.03
2023-03-11T01:51:43.058Z,100527.22
2023-03-11T01:54:13.697Z,100519.56
2023-03-11T01:56:42.076Z,100519.34
2023-03-11T01:59:11.760Z,100517.69
2023-03-11T02:01:46.177Z,100511.63
2023-03-11T02:04:14.089Z,100514.03
2023-03-11T02:06:40.840Z,100514.03
2023-03-11T02:09:08.663Z,100510.03
2023-03-11T02:11:35.766Z,100512.13
2023-03-11T02:14:06.790Z,100509.78
2023-03-11T02:16:33.880Z,100512.47
2023-03-11T02:19:10.869Z,100510.69
2023-03-11T02:21:37.783Z,100506.66
2023-03-11T02:24:29.309Z,100502.34
2023-03-11T02:26:56.735Z,100509.72
2023-03-11T02:29:25.002Z,100504.56
2023-03-11T02:31:52.100Z,100503.28
2023-03-11T02:34:26.254Z,100491.63
2023-03-11T02:36:53.118Z,100490.53
2023-03-11T02:39:35.057Z,100489.47
2023-03-11T02:42:07.409Z,100489.41
2023-03-11T02:44:34.968Z,100488.41
2023-03-11T02:47:02.099Z,100496.28
2023-03-11T02:49:30.758Z,100498.59
2023-03-11T02:51:57.448Z,100503.94
2023-03-11T02:54:24.200Z,100497.84
2023-03-11T02:56:50.947Z,100487.59
2023-03-11T02:59:17.740Z,100480.47
2023-03-11T03:01:44.482Z,100472.47
2023-03-11T03:04:11.260Z,100460.53
2023-03-11T03:06:38.044Z,100453.81
2023-03-11T03:09:05.110Z,100441.66
2023-03-11T03:11:31.983Z,100439.72
2023-03-11T03:13:58.777Z,100430.97
2023-03-11T03:16:25.544Z,100429.25
2023-03-11T03:18:52.783Z,100428.41
2023-03-11T03:21:19.651Z,100431.56
2023-03-11T03:23:46.454Z,100431.53
2023-03-11T03:26:14.584Z,100422.50
2023-03-11T03:28:41.342Z,100415.72
2023-03-11T03:31:10.561Z,100414.53
2023-03-11T03:33:38.098Z,100428.19
2023-03-11T03:36:10.472Z,100429.94
2023-03-11T03:38:37.256Z,100421.50
2023-03-11T03:41:04.204Z,100414.59
2023-03-11T03:43:31.058Z,100413.75
2023-03-11T03:46:05.590Z,100416.81
2023-03-11T03:48:32.394Z,100413.84
2023-03-11T03:51:08.897Z,100410.25
2023-03-11T03:53:36.368Z,100406.91
2023-03-11T03:56:07.653Z,100404.00
2023-03-11T03:58:34.588Z,100402.59
2023-03-11T04:01:01.621Z,100390.53
2023-03-11T04:03:29.071Z,100398.34
2023-03-11T04:06:16.784Z,100379.97
2023-03-11T04:08:44.095Z,100376.78
2023-03-11T04:11:11.302Z,100375.16
2023-03-11T04:13:38.102Z,100363.34
2023-03-11T04:16:06.221Z,100366.91
2023-03-11T04:18:33.348Z,100362.94
2023-03-11T04:21:00.383Z,100347.19
2023-03-11T04:23:27.107Z,100354.41
2023-03-11T04:25:53.859Z,100344.09
2023-03-11T04:28:20.646Z,100341.66
2023-03-11T04:30:47.476Z,100350.84
2023-03-11T04:33:14.268Z,100353.38
2023-03-11T04:35:41.096Z,100336.78
2023-03-11T04:38:07.937Z,100334.41
2023-03-11T04:40:34.659Z,100329.00
2023-03-11T04:43:01.429Z,100330.41
2023-03-11T04:45:28.150Z,100321.69
2023-03-11T04:47:54.900Z,100318.03
2023-03-11T04:50:21.779Z,100322.03
2023-03-11T04:52:48.870Z,100325.66
2023-03-11T04:55:16.366Z,100316.06
2023-03-11T04:57:43.890Z,100317.06
2023-03-11T05:00:12.478Z,100319.91
2023-03-11T05:02:40.583Z,100320.22
2023-03-11T05:05:09.775Z,100308.28
2023-03-11T05:07:37.030Z,100311.25
2023-03-11T05:10:05.411Z,100312.22
2023-03-11T05:12:32.647Z,100312.69
2023-03-11T05:14:59.359Z,100312.13
2023-03-11T05:17:26.158Z,100307.00
2023-03-11T05:19:56.493Z,100303.09
2023-03-11T05:22:23.596Z,100309.44
2023-03-11T05:24:50.437Z,100308.16
2023-03-11T05:27:21.399Z,100302.13
2023-03-11T05:29:48.297Z,100297.13
2023-03-11T05:32:15.094Z,100288.75
2023-03-11T05:34:42.403Z,100291.22
2023-03-11T05:37:09.479Z,100298.13
2023-03-11T05:39:37.839Z,100292.38
2023-03-11T05:42:08.515Z,100294.28
2023-03-11T05:44:35.401Z,100288.53
2023-03-11T05:47:02.210Z,100290.38
2023-03-11T05:49:29.048Z,100291.34
2023-03-11T05:51:58.539Z,100290.75
2023-03-11T05:54:25.680Z,100281.63
2023-03-11T05:56:52.551Z,100280.75
2023-03-11T05:59:19.649Z,100273.28
2023-03-11T06:01:46.407Z,100271.88
2023-03-11T06:04:13.372Z,100262.81
2023-03-11T06:06:43.883Z,100248.50
2023-03-11T06:09:13.867Z,100248.91
2023-03-11T06:11:40.709Z,100241.94
2023-03-11T06:14:07.620Z,100239.97
2023-03-11T06:16:34.474Z,100242.72
2023-03-11T06:19:01.254Z,100237.44
2023-03-11T06:21:28.308Z,100228.63
2023-03-11T06:23:55.231Z,100218.97
2023-03-11T06:26:23.274Z,100219.81
2023-03-11T06:28:51.907Z,100221.97
2023-03-11T06:31:27.288Z,100213.06
2023-03-11T06:33:58.956Z,100207.97
2023-03-11T06:36:25.798Z,100195.31
2023-03-11T06:38:54.157Z,100202.03
2023-03-11T06:41:20.920Z,100198.66
2023-03-11T06:43:47.734Z,100191.53
2023-03-11T06:46:32.683Z,100187.66
2023-03-11T06:48:59.401Z,100185.66
2023-03-11T06:51:26.186Z,100176.63
2023-03-11T06:53:54.145Z,100185.78
2023-03-11T06:56:22.801Z,100163.00
2023-03-11T06:58:49.668Z,100169.50
2023-03-11T07:01:22.081Z,100168.13
2023-03-11T07:03:49.954Z,100184.28
2023-03-11T07:06:20.190Z,100196.50
2023-03-11T07:08:49.064Z,100173.63
2023-03-11T07:11:25.360Z,100170.78
2023-03-11T07:13:54.850Z,100183.63
2023-03-11T07:16:25.211Z,100172.97
2023-03-11T07:18:54.674Z,100175.31
2023-03-11T07:21:23.216Z,100178.81
2023-03-11T07:23:57.905Z,100172.16
2023-03-11T07:26:26.289Z,100163.72
2023-03-11T07:28:54.779Z,100170.41
2023-03-11T07:31:30.553Z,100162.22
2023-03-11T07:33:58.716Z,100154.41
2023-03-11T07:36:26.723Z,100157.41
2023-03-11T07:38:59.774Z,100157.22
2023-03-11T07:41:27.430Z,100159.75
2023-03-11T07:43:56.264Z,100158.63
2023-03-11T07:46:24.775Z,100160.59
2023-03-11T07:48:52.403Z,100155.97
2023-03-11T07:51:27.962Z,100147.78
2023-03-11T07:53:57.223Z,100140.28
2023-03-11T07:56:25.461Z,100139.50
2023-03-11T07:58:52.539Z,100142.38
2023-03-11T08:01:24.763Z,100137.94
2023-03-11T08:03:58.925Z,100142.88
2023-03-11T08:06:29.512Z,100144.13
2023-03-11T08:08:56.268Z,100131.59
2023-03-11T08:11:23.606Z,100128.91
2023-03-11T08:13:51.379Z,100121.06
2023-03-11T08:16:20.898Z,100114.94
2023-03-11T08:18:50.059Z,100119.94
2023-03-11T08:21:22.584Z,100136.88
2023-03-11T08:23:50.685Z,100134.88
2023-03-11T08:26:20.837Z,100130.03
2023-03-11T08:28:48.704Z,100129.06
2023-03-11T08:31:21.705Z,100111.06
2023-03-11T08:33:50.696Z,100116.28
2023-03-11T08:36:18.494Z,100115.44
2023-03-11T08:38:45.594Z,100121.09
2023-03-11T08:41:12.680Z,100107.22
2023-03-11T08:43:39.652Z,100109.03
2023-03-11T08:46:07.247Z,100117.13
2023-03-11T08:48:35.307Z,100099.41
2023-03-11T08:51:03.160Z,100101.25
2023-03-11T08:53:29.977Z,100103.72
2023-03-11T08:55:56.741Z,100102.66
2023-03-11T08:58:23.461Z,100095.91
2023-03-11T09:00:50.241Z,100094.66
2023-03-11T09:03:17.050Z,100093.09
2023-03-11T09:05:43.876Z,100092.78
2023-03-11T09:08:10.721Z,100076.50
2023-03-11T09:10:37.579Z,100074.72
2023-03-11T09:13:04.307Z,100082.78
2023-03-11T09:15:31.121Z,100075.78
2023-03-11T09:17:58.047Z,100064.94
2023-03-11T09:20:24.797Z,100059.44
2023-03-11T09:22:51.600Z,100057.31
2023-03-11T09:25:18.429Z,100055.94
2023-03-11T09:27:45.225Z,100050.66
2023-03-11T09:30:12.497Z,100064.56
2023-03-11T09:32:39.327Z,100061.09
2023-03-11T09:35:06.491Z,100054.16
2023-03-11T09:37:33.228Z,100060.69
2023-03-11T09:40:00.014Z,100064.03
2023-03-11T09:42:49.287Z,100052.75
2023-03-11T09:45:20.084Z,100058.41
2023-03-11T09:48:07.973Z,100061.91
2023-03-11T09:51:09.606Z,100077.16
2023-03-11T09:53:44.209Z,100063.91
2023-03-11T09:56:20.613Z,100061.47
2023-03-11T09:58:55.507Z,100069.56
2023-03-11T10:01:35.209Z,100062.88
2023-03-11T10:04:16.959Z,100059.09
2023-03-11T10:06:46.169Z,100061.63
2023-03-11T10:09:13.064Z,100052.47
2023-03-11T10:11:47.180Z,100070.03
2023-03-11T10:14:32.137Z,100072.34
2023-03-11T10:17:28.458Z,100049.56
2023-03-11T10:20:15.536Z,100042.50
2023-03-11T10:23:03.860Z,100045.84
2023-03-11T10:25:53.409Z,100042.19
2023-03-11T10:28:24.334Z,100038.66
2023-03-11T10:31:00.728Z,100041.81
2023-03-11T10:33:47.845Z,100039.47
2023-03-11T10:36:24.030Z,100038.50
2023-03-11T10:38:54.041Z,100025.69
2023-03-11T10:41:51.818Z,100022.78
2023-03-11T10:44:18.798Z,100020.03
2023-03-11T10:46:45.561Z,100024.13
2023-03-11T10:49:15.769Z,100021.72
2023-03-11T10:51:46.924Z,100025.53
2023-03-11T10:54:30.030Z,100025.75
2023-03-11T10:57:05.504Z,100021.63
2023-03-11T10:59:50.654Z,100012.78
2023-03-11T11:02:26.353Z,100019.16
2023-03-11T11:05:28.580Z,100018.63
2023-03-11T11:08:13.633Z,100018.03
2023-03-11T11:10:54.122Z,100010.06
2023-03-11T11:13:23.635Z,100032.06
2023-03-11T11:16:03.476Z,100030.16
2023-03-11T11:18:49.509Z,100031.44
2023-03-11T11:21:29.077Z,100035.00
2023-03-11T11:24:20.188Z,100024.72
2023-03-11T11:27:14.560Z,100011.72
2023-03-11T11:29:41.758Z,100002.31
2023-03-11T11:32:20.981Z,100011.13
2023-03-11T11:35:01.253Z,100006.19
2023-03-11T11:37:32.259Z,100009.34
2023-03-11T11:40:21.825Z,100004.41
2023-03-11T11:43:03.611Z,100001.66
2023-03-11T11:45:35.056Z,100015.78
2023-03-11T11:48:24.361Z,100014.19
2023-03-11T11:50:58.446Z,100003.09
2023-03-11T11:53:41.176Z,100000.97
2023-03-11T11:56:08.134Z,100000.88
2023-03-11T11:58:35.702Z,100000.91
2023-03-11T12:01:19.862Z,100000.69
2023-03-11T12:04:02.459Z,99994.88
2023-03-11T12:06:41.546Z,99996.56
2023-03-11T12:09:24.434Z,99997.38
2023-03-11T12:12:04.506Z,100001.13
2023-03-11T12:14:39.378Z,100003.41
2023-03-11T12:17:08.740Z,99992.31
2023-03-11T12:19:40.310Z,99995.72
2023-03-11T12:22:15.913Z,99991.22
2023-03-11T12:25:05.341Z,99990.78
2023-03-11T12:27:43.240Z,99986.75
2023-03-11T12:30:30.379Z,99991.75
2023-03-11T12:33:05.099Z,99990.56
2023-03-11T12:35:34.886Z,99995.25
2023-03-11T12:38:01.555Z,99993.69
2023-03-11T12:41:00.611Z,99987.53
2023-03-11T12:43:36.356Z,99999.78
2023-03-11T12:46:06.230Z,99994.81
2023-03-11T12:49:04.633Z,99997.47
2023-03-11T12:51:34.462Z,99998.44
2023-03-11T12:54:21.524Z,100003.00
2023-03-11T12:57:21.515Z,100006.69
2023-03-11T13:00:00.260Z,100009.94
2023-03-11T13:02:47.613Z,100011.84
2023-03-11T13:05:53.053Z,100006.28
2023-03-11T13:08:23.239Z,100013.16
2023-03-11T13:10:55.570Z,100011.66
2023-03-11T13:13:43.022Z,100010.28
2023-03-11T13:16:39.884Z,100015.78
2023-03-11T13:19:48.958Z,99999.63
2023-03-11T13:22:42.609Z,99999.56
2023-03-11T13:25:45.789Z,100006.59
2023-03-11T13:28:44.264Z,100003.75
2023-03-11T13:31:29.856Z,100004.97
2023-03-11T13:34:26.287Z,100008.97
2023-03-11T13:37:11.639Z,100001.66
2023-03-11T13:39:43.973Z,100002.59
2023-03-11T13:42:40.480Z,99988.91
2023-03-11T13:45:14.216Z,99992.44
2023-03-11T13:47:46.462Z,99994.38
2023-03-11T13:50:24.005Z,100000.34
2023-03-11T13:52:53.913Z,100000.44
2023-03-11T13:55:27.036Z,100000.84
2023-03-11T13:57:56.560Z,99999.25
2023-03-11T14:00:28.595Z,99987.63
2023-03-11T14:02:58.688Z,99988.50
2023-03-11T14:05:30.199Z,99993.50
2023-03-11T14:08:27.392Z,99989.94
2023-03-11T14:10:59.496Z,99993.53
2023-03-11T14:13:31.303Z,99981.84
2023-03-11T14:16:07.858Z,99997.41
2023-03-11T14:18:40.964Z,99995.47
2023-03-11T14:21:12.964Z,99978.66
2023-03-11T14:23:49.018Z,99997.94
2023-03-11T14:26:20.259Z,99989.47
2023-03-11T14:28:49.740Z,99989.88
2023-03-11T14:31:25.834Z,99982.28
2023-03-11T14:34:04.750Z,99985.41
2023-03-11T14:36:43.615Z,99975.38
2023-03-11T14:39:30.756Z,99983.06
2023-03-11T14:42:20.134Z,99985.38
2023-03-11T14:44:52.524Z,99995.38
2023-03-11T14:47:46.160Z,99992.72
2023-03-11T14:50:19.195Z,99992.09
2023-03-11T14:52:51.143Z,99995.69
2023-03-11T14:55:22.354Z,99992.69
2023-03-11T14:57:54.754Z,100005.09
2023-03-11T15:00:28.772Z,100001.13
2023-03-11T15:03:31.167Z,100009.69
2023-03-11T15:06:00.923Z,100015.91
2023-03-11T15:08:32.007Z,100016.03
2023-03-11T15:11:04.675Z,100022.00
2023-03-11T15:13:31.670Z,100028.00
2023-03-11T15:16:03.440Z,100023.56
2023-03-11T15:18:38.871Z,100030.22
2023-03-11T15:21:13.100Z,100031.69
2023-03-11T15:23:45.083Z,100035.16
2023-03-11T15:26:21.571Z,100037.81
2023-03-11T15:28:59.335Z,100030.91
2023-03-11T15:31:37.230Z,100047.47
2023-03-11T15:34:20.202Z,100043.38
2023-03-11T15:36:49.646Z,100043.75
2023-03-11T15:39:30.818Z,100064.41
2023-03-11T15:42:02.142Z,100060.19
2023-03-11T15:45:04.936Z,100072.59
2023-03-11T15:47:31.790Z,100062.81
2023-03-11T15:50:02.366Z,100074.50
2023-03-11T15:52:29.154Z,100065.91
2023-03-11T15:54:56.331Z,100067.88
2023-03-11T15:57:30.186Z,100084.41
2023-03-11T16:00:00.129Z,100074.13
2023-03-11T16:02:29.437Z,100073.28
2023-03-11T16:04:57.080Z,100071.34
2023-03-11T16:07:38.764Z,100064.16
2023-03-11T16:10:07.700Z,100095.00
2023-03-11T16:12:34.801Z,100090.06
2023-03-11T16:15:01.870Z,100097.06
2023-03-11T16:17:39.562Z,100114.00
2023-03-11T16:20:13.822Z,100105.75
2023-03-11T16:22:40.774Z,100099.63
2023-03-11T16:25:15.053Z,100101.38
2023-03-11T16:27:41.802Z,100107.63
2023-03-11T16:30:10.163Z,100109.59
2023-03-11T16:32:37.232Z,100115.66
2023-03-11T16:35:04.699Z,100114.69
2023-03-11T16:37:31.396Z,100117.91
2023-03-11T16:39:58.566Z,100117.97
2023-03-11T16:42:28.405Z,100109.22
2023-03-11T16:44:55.107Z,100120.69
2023-03-11T16:47:21.918Z,100119.06
2023-03-11T16:49:53.490Z,100134.75
2023-03-11T16:52:21.142Z,100139.13
2023-03-11T16:54:48.005Z,100145.22
2023-03-11T16:57:14.835Z,100154.25
2023-03-11T16:59:41.977Z,100147.09
2023-03-11T17:02:11.797Z,100156.81
2023-03-11T17:04:38.705Z,100155.25
2023-03-11T17:07:06.633Z,100166.88
2023-03-11T17:09:35.374Z,100171.03
2023-03-11T17:12:03.393Z,100174.41
2023-03-11T17:14:32.247Z,100175.38
2023-03-11T17:16:59.729Z,100185.19
2023-03-11T17:19:26.509Z,100193.91
2023-03-11T17:21:53.233Z,100193.91
2023-03-11T17:24:20.127Z,100199.66
2023-03-11T17:26:46.877Z,100207.19
2023-03-11T17:29:13.614Z,100206.72
2023-03-11T17:31:40.380Z,100211.84
2023-03-11T17:34:07.169Z,100216.78
2023-03-11T17:36:33.910Z,100230.16
2023-03-11T17:39:00.645Z,100219.97
2023-03-11T17:41:27.393Z,100235.88
2023-03-11T17:43:54.343Z,100241.63
2023-03-11T17:46:22.670Z,100234.69
2023-03-11T17:48:50.542Z,100248.22
2023-03-11T17:51:20.428Z,100251.19
2023-03-11T17:53:48.633Z,100252.63
2023-03-11T17:56:18.652Z,100256.19
2023-03-11T17:58:45.459Z,100255.94
2023-03-11T18:01:21.760Z,100257.25
2023-03-11T18:03:48.989Z,100254.19
2023-03-11T18:06:17.964Z,100269.97
2023-03-11T18:08:45.245Z,100264.81
2023-03-11T18:11:17.568Z,100267.09
2023-03-11T18:13:45.940Z,100273.78
2023-03-11T18:16:15.833Z,100266.63
2023-03-11T18:18:43.174Z,100274.81
2023-03-11T18:21:18.608Z,100276.75
2023-03-11T18:23:45.999Z,100285.72
2023-03-11T18:26:15.777Z,100288.59
2023-03-11T18:28:43.032Z,100291.00
2023-03-11T18:31:15.023Z,100289.56
2023-03-11T18:33:46.275Z,100290.97
2023-03-11T18:36:22.253Z,100304.09
2023-03-11T18:38:49.599Z,100300.22
2023-03-11T18:41:16.519Z,100313.44
2023-03-11T18:43:43.666Z,100309.50
2023-03-11T18:46:14.895Z,100321.13
2023-03-11T18:48:41.512Z,100322.72
2023-03-11T18:51:09.453Z,100316.97
2023-03-11T18:53:36.666Z,100328.69
2023-03-11T18:56:06.468Z,100326.75
2023-03-11T18:58:33.561Z,100329.81
2023-03-11T19:01:06.724Z,100333.97
2023-03-11T19:03:34.455Z,100337.88
2023-03-11T19:06:01.713Z,100334.38
2023-03-11T19:08:28.752Z,100346.59
2023-03-11T19:10:56.212Z,100348.03
2023-03-11T19:13:23.190Z,100345.00
2023-03-11T19:15:50.375Z,100357.81
2023-03-11T19:18:17.315Z,100356.00
2023-03-11T19:20:44.134Z,100359.28
2023-03-11T19:23:11.513Z,100366.66
2023-03-11T19:25:38.450Z,100358.34
2023-03-11T19:28:05.247Z,100353.50
2023-03-11T19:30:32.757Z,100358.03
2023-03-11T19:32:59.554Z,100377.34
2023-03-11T19:35:26.331Z,100380.72
2023-03-11T19:37:57.118Z,100378.31
2023-03-11T19:40:24.162Z,100383.13
2023-03-11T19:42:50.877Z,100376.03
2023-03-11T19:45:17.750Z,100384.09
2023-03-11T19:47:46.593Z,100389.16
2023-03-11T19:50:13.389Z,100385.16
2023-03-11T19:52:40.214Z,100377.69
2023-03-11T19:55:07.648Z,100373.06
2023-03-11T19:57:34.602Z,100362.44
2023-03-11T20:00:01.558Z,100372.31
2023-03-11T20:02:28.375Z,100386.53
2023-03-11T20:04:55.226Z,100370.53
2023-03-11T20:07:22.299Z,100384.19
2023-03-11T20:09:49.059Z,100387.84
2023-03-11T20:12:16.212Z,100390.81
2023-03-11T20:14:43.245Z,100390.16
2023-03-11T20:17:09.967Z,100398.34
2023-03-11T20:19:36.776Z,100399.41
2023-03-11T20:22:03.819Z,100400.25
2023-03-11T20:24:30.574Z,100400.03
2023-03-11T20:26:57.366Z,100405.94
2023-03-11T20:29:24.501Z,100415.19
2023-03-11T20:31:51.491Z,100416.03
2023-03-11T20:34:18.374Z,100412.88
2023-03-11T20:36:45.273Z,100422.13
2023-03-11T20:39:12.258Z,100427.88
2023-03-11T20:41:40.866Z,100427.78
2023-03-11T20:44:09.101Z,100431.56
2023-03-11T20:46:36.032Z,100447.63
2023-03-11T20:49:03.624Z,100428.84
2023-03-11T20:51:30.537Z,100440.41
2023-03-11T20:53:57.559Z,100447.66
2023-03-11T20:56:26.110Z,100449.75
2023-03-11T20:58:55.914Z,100447.13
2023-03-11T21:01:29.615Z,100453.66
2023-03-11T21:03:59.210Z,100455.00
2023-03-11T21:06:32.876Z,100462.22
2023-03-11T21:09:03.172Z,100451.84
2023-03-11T21:11:29.984Z,100461.00
2023-03-11T21:13:59.617Z,100453.53
2023-03-11T21:16:27.263Z,100457.19
2023-03-11T21:18:54.397Z,100456.56
2023-03-11T21:21:21.829Z,100442.91
2023-03-11T21:23:49.443Z,100452.38
2023-03-11T21:26:17.028Z,100454.56
2023-03-11T21:28:47.183Z,100454.88
2023-03-11T21:31:22.384Z,100453.78
2023-03-11T21:33:53.715Z,100465.06
2023-03-11T21:36:20.590Z,100463.31
2023-03-11T21:38:47.846Z,100470.16
2023-03-11T21:41:25.694Z,100467.09
2023-03-11T21:43:54.850Z,100471.72
2023-03-11T21:46:24.780Z,100484.09
2023-03-11T21:48:51.676Z,100478.09
2023-03-11T21:51:19.879Z,100489.06
2023-03-11T21:53:47.006Z,100498.28
2023-03-11T21:56:14.167Z,100509.22
2023-03-11T21:58:41.770Z,100502.19
2023-03-11T22:01:10.056Z,100514.59
2023-03-11T22:03:37.820Z,100509.16
2023-03-11T22:06:10.075Z,100508.19
2023-03-11T22:08:37.133Z,100505.81
2023-03-11T22:11:08.205Z,100495.13
2023-03-11T22:13:35.176Z,100499.53
2023-03-11T22:16:04.267Z,100502.19
2023-03-11T22:18:31.048Z,100508.19
2023-03-11T22:21:01.244Z,100510.94
2023-03-11T22:23:28.301Z,100520.97
2023-03-11T22:25:55.454Z,100525.75
2023-03-11T22:28:22.555Z,100525.59
2023-03-11T22:30:49.321Z,100530.81
2023-03-11T22:33:16.105Z,100527.44
2023-03-11T22:35:57.135Z,100525.03
2023-03-11T22:38:24.278Z,100525.84
2023-03-11T22:40:51.578Z,100529.84
2023-03-11T22:43:18.346Z,100522.88
2023-03-11T22:45:45.818Z,100521.31
2023-03-11T22:48:12.583Z,100524.72
2023-03-11T22:50:44.601Z,100525.47
2023-03-11T22:53:12.520Z,100523.47
2023-03-11T22:55:44.439Z,100514.88
2023-03-11T22:58:12.528Z,100516.97
2023-03-11T23:00:39.717Z,100511.44
2023-03-11T23:03:07.345Z,100511.09
2023-03-11T23:05:40.837Z,100504.13
2023-03-11T23:08:13.028Z,100499.78
2023-03-11T23:10:48.792Z,100494.63
2023-03-11T23:13:16.185Z,100496.66
2023-03-11T23:15:44.736Z,100494.41
2023-03-11T23:18:12.941Z,100500.19
2023-03-11T23:20:41.208Z,100498.44
2023-03-11T23:23:09.426Z,100500.75
2023-03-11T23:25:36.185Z,100495.91
2023-03-11T23:28:05.835Z,100493.16
2023-03-11T23:30:33.201Z,100504.28
2023-03-11T23:33:02.603Z,100507.06
2023-03-11T23:35:29.476Z,100505.47
2023-03-11T23:37:56.234Z,100503.06
2023-03-11T23:40:23.015Z,100497.25
2023-03-11T23:42:50.862Z,100505.13
2023-03-11T23:45:17.917Z,100511.78
2023-03-11T23:47:44.688Z,100506.25
2023-03-11T23:50:11.777Z,100498.41
2023-03-11T23:52:38.491Z,100488.84
2023-03-11T23:55:05.657Z,100493.44
2023-03-11T23:57:35.779Z,100500.81
